South Danville, New Hampshire
Current Conditions -  °F | °C
As of 11:54 AM on Thursday 23 Oct 2014 (Local Time) from KLWM Reporting Station
Overcast Overcast  
Wind Chill: 53°   Ceiling: 1200
Heat Index: 53°   Visibility: 10mi
Dew Point: 50°   Wind: 26mph
Humidity: 89%   Direction: 20°NNE
Pressure: 29.67"   Gusts: 36mph
Location:  42.9217°N, 71.1138°W
Report Text: KLWM 231554Z 02023G31KT 10SM OVC012 12/10 A2967 RMK AO2 PK WND 02031/1553 RAE06 SLP047 P0000 T01170100
Loading
Personal Weather Stations






























Interactive Weather Map
Tropical Storm Tracking
New forecast layout! Learn more

10-Day Weather Forecast

Advertisements
Track Severe Weather on mobile